Tempestade tropical IMAN 2021: trajetória, intensidade e histórico
11/03/2021, 12:00:00
2/03/2021, 12:00:00 – 11/03/2021, 12:00:00
Trajetória histórica
Acompanhe a evolução e o deslocamento de Tempestade tropical IMAN em 2021, com a trajetória completa registrada, ventos máximos sustentados de 50 nós, pressão central mínima e cronologia detalhada.
| Data | Hora | Tipo | Ventokm/h | PressãohPa |
|---|---|---|---|---|
| 11/03 | 12:00 | TCCiclone tropical | 35 | 1009 |
| 11/03 | 09:00 | TDDepressão tropical | 40 | 1009 |
| 11/03 | 06:00 | TCCiclone tropical | 40 | 1008 |
| 11/03 | 03:00 | TDDepressão tropical | 45 | 1007 |
| 11/03 | 00:00 | TCCiclone tropical | 45 | 1006 |
| 10/03 | 21:00 | TDDepressão tropical | 50 | 1005 |
| 10/03 | 18:00 | TCCiclone tropical | 55 | 1004 |
| 10/03 | 15:00 | TDDepressão tropical | 55 | 1004 |
| 10/03 | 12:00 | TCCiclone tropical | 60 | 1003 |
| 10/03 | 09:00 | TDDepressão tropical | 60 | 1003 |
| 10/03 | 06:00 | TCCiclone tropical | 60 | 1003 |
| 10/03 | 03:00 | TDDepressão tropical | 60 | 1003 |
| 10/03 | 00:00 | TCCiclone tropical | 60 | 1003 |
| 09/03 | 21:00 | TDDepressão tropical | 60 | 1003 |
| 09/03 | 18:00 | TCCiclone tropical | 60 | 1003 |
| 09/03 | 15:00 | TDDepressão tropical | 60 | 1003 |
| 09/03 | 12:00 | TCCiclone tropical | 60 | 1003 |
| 09/03 | 09:00 | TDDepressão tropical | 60 | 1003 |
| 09/03 | 06:00 | TCCiclone tropical | 60 | 1003 |
| 09/03 | 03:00 | SDDepressão subtropical | 65 | 1002 |
| 09/03 | 00:00 | STSTempestade tropical severa | 55 | 999 |
| 08/03 | 21:00 | SDDepressão subtropical | 55 | 1000 |
| 08/03 | 18:00 | STSTempestade tropical severa | 55 | 1000 |
| 08/03 | 15:00 | SSTempestade subtropical | 65 | 998 |
| 08/03 | 12:00 | STSTempestade tropical severa | 75 | 995 |
| 08/03 | 09:00 | TSTempestade tropical | 75 | 997 |
| 08/03 | 06:00 | STSTempestade tropical severa | 75 | 998 |
| 08/03 | 03:00 | TSTempestade tropical | 85 | 994 |
| 08/03 | 00:00 | TDDepressão tropical | 95 | 989 |
| 07/03 | 21:00 | TSTempestade tropical | 90 | 990 |
| 07/03 | 18:00 | TDDepressão tropical | 85 | 991 |
| 07/03 | 15:00 | TSTempestade tropical | 75 | 996 |
| 07/03 | 12:00 | TDDepressão tropical | 65 | 1001 |
| 07/03 | 09:00 | TDDepressão tropical | 60 | 1001 |
| 07/03 | 06:00 | TDDepressão tropical | 55 | 1001 |
| 07/03 | 03:00 | TDDepressão tropical | 55 | 1003 |
| 07/03 | 00:00 | TDDepressão tropical | 55 | 1004 |
| 06/03 | 21:00 | TDDepressão tropical | 55 | 1005 |
| 06/03 | 18:00 | TDDepressão tropical | 55 | 1005 |
| 06/03 | 15:00 | TDDepressão tropical | 55 | 1004 |
| 06/03 | 12:00 | DBPerturbação tropical | 55 | 1002 |
| 06/03 | 09:00 | DBPerturbação tropical | 45 | 1005 |
| 06/03 | 06:00 | DBPerturbação tropical | 35 | 1008 |
| 06/03 | 03:00 | DBPerturbação tropical | 35 | 1008 |
| 06/03 | 00:00 | VITCCiclone tropical muito intenso | 35 | 1008 |
| 05/03 | 21:00 | TDDepressão tropical | 45 | 1007 |
| 05/03 | 18:00 | VITCCiclone tropical muito intenso | 45 | 1005 |
| 05/03 | 15:00 | TDDepressão tropical | 45 | 1004 |
| 05/03 | 12:00 | VITCCiclone tropical muito intenso | 45 | 1002 |
| 05/03 | 09:00 | TDDepressão tropical | 50 | 1003 |
| 05/03 | 06:00 | TDDepressão tropical | 55 | 1003 |
| 05/03 | 03:00 | TDDepressão tropical | 55 | 1003 |
| 05/03 | 00:00 | DBPerturbação tropical | 55 | 1002 |
| 04/03 | 21:00 | TDDepressão tropical | 55 | 1002 |
| 04/03 | 18:00 | DBPerturbação tropical | 55 | 1001 |
| 04/03 | 15:00 | TDDepressão tropical | 50 | 1001 |
| 04/03 | 12:00 | DBPerturbação tropical | 45 | 1001 |
| 04/03 | 09:00 | DBPerturbação tropical | 45 | 1004 |
| 04/03 | 06:00 | DBPerturbação tropical | 35 | 1007 |
| 04/03 | 03:00 | DBPerturbação tropical | 35 | 1006 |
| 04/03 | 00:00 | DBPerturbação tropical | 30 | 1005 |
| 03/03 | 21:00 | TDDepressão tropical | 30 | 1004 |
| 03/03 | 18:00 | DBPerturbação tropical | 30 | 1004 |
| 03/03 | 15:00 | TDDepressão tropical | 30 | 1005 |
| 03/03 | 12:00 | DBPerturbação tropical | 30 | 1005 |
| 03/03 | 09:00 | TDDepressão tropical | 30 | 1006 |
| 03/03 | 06:00 | DBPerturbação tropical | 30 | 1006 |
| 03/03 | 03:00 | TDDepressão tropical | 30 | 1006 |
| 03/03 | 00:00 | DBPerturbação tropical | 30 | 1006 |
| 02/03 | 21:00 | TDDepressão tropical | 30 | 1006 |
| 02/03 | 18:00 | DBPerturbação tropical | 30 | 1006 |
| 02/03 | 15:00 | TDDepressão tropical | 30 | 1006 |
| 02/03 | 12:00 | DBPerturbação tropical | 30 | 1006 |
Cronologia de localização
73 Registos de localizaçãoDetalhes do evento
Ligações das fontes
A localização, a extensão e o estado de cada evento podem ser atualizados em momentos diferentes consoante a fonte. Confirme decisões importantes junto das autoridades oficiais de emergência.
Os registos de eventos provêm da NASA EONET e são complementados por registos de deslizamentos de terra do USGS FDSN. As análises e previsões de tempestades podem utilizar a NOAA NHC ou o JTWC, com registos históricos ATCF da UCAR/NCAR quando disponíveis. As imagens de satélite provêm da NASA Worldview/GIBS (GOES e Himawari) ou da EUMETSAT Meteosat, consoante a cobertura do mapa.
Fontes: NASA EONET · USGS · NOAA NHC · JTWC · UCAR/NCAR ATCF · NASA Worldview/GIBS · EUMETSAT Meteosat · OpenStreetMap contributors